createdAt,value
2022-12-14T00:01:14.646Z,18.08
2022-12-14T00:03:41.437Z,18.60
2022-12-14T00:06:08.157Z,18.00
2022-12-14T00:08:39.917Z,17.10
2022-12-14T00:11:08.579Z,18.48
2022-12-14T00:13:35.338Z,18.50
2022-12-14T00:16:02.155Z,16.80
2022-12-14T00:18:29.259Z,17.58
2022-12-14T00:20:56.282Z,18.73
2022-12-14T00:23:23.042Z,17.05
2022-12-14T00:25:49.754Z,17.90
2022-12-14T00:28:16.473Z,17.08
2022-12-14T00:30:43.221Z,18.55
2022-12-14T00:33:10.458Z,17.42
2022-12-14T00:35:37.138Z,18.90
2022-12-14T00:38:03.828Z,16.70
2022-12-14T00:40:30.877Z,17.83
2022-12-14T00:42:57.557Z,17.38
2022-12-14T00:45:24.288Z,18.33
2022-12-14T00:47:51.032Z,18.17
2022-12-14T00:50:17.744Z,18.25
2022-12-14T00:52:44.444Z,16.95
2022-12-14T00:55:11.896Z,16.50
2022-12-14T00:57:38.667Z,17.20
2022-12-14T01:00:05.745Z,17.77
2022-12-14T01:02:32.500Z,17.27
2022-12-14T01:04:59.300Z,18.13
2022-12-14T01:07:25.988Z,16.73
2022-12-14T01:09:52.730Z,16.88
2022-12-14T01:12:19.938Z,17.55
2022-12-14T01:14:46.649Z,17.10
2022-12-14T01:17:13.374Z,17.02
2022-12-14T01:19:40.098Z,17.42
2022-12-14T01:22:06.757Z,17.13
2022-12-14T01:24:33.468Z,16.27
2022-12-14T01:27:00.227Z,16.80
2022-12-14T01:29:27.082Z,16.00
2022-12-14T01:31:53.777Z,16.25
2022-12-14T01:34:20.540Z,17.10
2022-12-14T01:36:47.244Z,17.33
2022-12-14T01:39:14.071Z,16.42
2022-12-14T01:41:40.729Z,16.20
2022-12-14T01:44:07.387Z,17.10
2022-12-14T01:46:34.148Z,15.65
2022-12-14T01:49:00.896Z,16.80
2022-12-14T01:51:27.805Z,15.10
2022-12-14T01:53:54.485Z,16.40
2022-12-14T01:56:21.151Z,16.23
2022-12-14T01:58:47.888Z,18.35
2022-12-14T02:01:14.912Z,17.13
2022-12-14T02:03:41.657Z,17.08
2022-12-14T02:06:08.438Z,16.48
2022-12-14T02:08:35.180Z,16.63
2022-12-14T02:11:01.853Z,17.23
2022-12-14T02:13:28.980Z,16.17
2022-12-14T02:15:55.910Z,16.50
2022-12-14T02:18:22.663Z,17.83
2022-12-14T02:20:49.314Z,17.13
2022-12-14T02:23:15.982Z,17.38
2022-12-14T02:25:44.332Z,17.42
2022-12-14T02:28:16.270Z,17.50
2022-12-14T02:30:43.215Z,17.73
2022-12-14T02:33:09.979Z,17.75
2022-12-14T02:35:36.722Z,17.55
2022-12-14T02:38:03.413Z,16.77
2022-12-14T02:40:30.155Z,16.83
2022-12-14T02:42:56.845Z,17.70
2022-12-14T02:45:23.562Z,17.42
2022-12-14T02:47:50.293Z,16.40
2022-12-14T02:50:16.997Z,15.77
2022-12-14T02:52:43.696Z,16.60
2022-12-14T02:55:10.417Z,15.50
2022-12-14T02:57:37.062Z,16.45
2022-12-14T03:00:04.529Z,14.95
2022-12-14T03:02:31.308Z,15.82
2022-12-14T03:04:58.089Z,17.00
2022-12-14T03:07:25.014Z,15.88
2022-12-14T03:09:51.689Z,16.83
2022-12-14T03:12:18.412Z,15.40
2022-12-14T03:14:45.059Z,17.05
2022-12-14T03:17:15.178Z,15.98
2022-12-14T03:19:44.934Z,17.55
2022-12-14T03:22:15.744Z,16.45
2022-12-14T03:24:42.449Z,14.63
2022-12-14T03:27:09.956Z,17.25
2022-12-14T03:29:36.682Z,16.65
2022-12-14T03:32:03.609Z,16.13
2022-12-14T03:34:30.445Z,16.30
2022-12-14T03:36:57.115Z,15.48
2022-12-14T03:39:23.811Z,17.58
2022-12-14T03:41:50.924Z,14.55
2022-12-14T03:44:17.645Z,16.55
2022-12-14T03:46:44.315Z,16.10
2022-12-14T03:49:11.039Z,15.88
2022-12-14T03:51:37.735Z,16.00
2022-12-14T03:54:04.494Z,14.20
2022-12-14T03:56:31.207Z,13.63
2022-12-14T03:58:57.887Z,15.57
2022-12-14T04:01:24.773Z,15.75
2022-12-14T04:03:51.583Z,17.33
2022-12-14T04:06:18.290Z,16.85
2022-12-14T04:08:45.027Z,17.75
2022-12-14T04:11:30.502Z,16.92
2022-12-14T04:14:35.771Z,17.17
2022-12-14T04:17:20.805Z,15.80
2022-12-14T04:19:49.513Z,16.20
2022-12-14T04:22:16.599Z,16.50
2022-12-14T04:25:02.153Z,16.40
2022-12-14T04:27:28.844Z,15.35
2022-12-14T04:29:59.499Z,15.68
2022-12-14T04:32:26.276Z,15.95
2022-12-14T04:34:53.028Z,15.70
2022-12-14T04:37:19.766Z,15.32
2022-12-14T04:39:46.661Z,15.35
2022-12-14T04:42:13.384Z,16.15
2022-12-14T04:44:40.104Z,17.70
2022-12-14T04:47:06.788Z,16.13
2022-12-14T04:49:33.442Z,15.77
2022-12-14T04:52:05.609Z,16.13
2022-12-14T04:54:32.657Z,14.75
2022-12-14T04:56:59.325Z,15.88
2022-12-14T04:59:26.011Z,15.88
2022-12-14T05:01:52.774Z,15.73
2022-12-14T05:04:19.509Z,16.25
2022-12-14T05:06:46.214Z,16.77
2022-12-14T05:09:12.915Z,17.50
2022-12-14T05:11:53.162Z,15.00
2022-12-14T05:14:20.143Z,15.82
2022-12-14T05:16:48.970Z,15.55
2022-12-14T05:19:16.038Z,15.15
2022-12-14T05:21:48.737Z,15.75
2022-12-14T05:24:15.445Z,16.65
2022-12-14T05:26:42.098Z,17.38
2022-12-14T05:29:08.890Z,16.33
2022-12-14T05:31:35.625Z,15.95
2022-12-14T05:34:02.367Z,16.08
2022-12-14T05:36:29.509Z,15.65
2022-12-14T05:38:56.228Z,13.95
2022-12-14T05:41:23.147Z,14.80
2022-12-14T05:43:49.886Z,15.38
2022-12-14T05:46:16.642Z,15.23
2022-12-14T05:48:48.840Z,14.85
2022-12-14T05:51:16.060Z,15.13
2022-12-14T05:53:42.877Z,14.52
2022-12-14T05:56:09.923Z,15.63
2022-12-14T05:58:36.683Z,15.45
2022-12-14T06:01:03.782Z,15.10
2022-12-14T06:03:30.743Z,14.63
2022-12-14T06:05:57.738Z,14.05
2022-12-14T06:08:24.433Z,15.05
2022-12-14T06:10:51.216Z,15.27
2022-12-14T06:13:18.199Z,15.00
2022-12-14T06:15:44.943Z,14.98
2022-12-14T06:18:11.758Z,15.60
2022-12-14T06:20:38.536Z,16.55
2022-12-14T06:23:05.240Z,15.52
2022-12-14T06:25:32.013Z,16.70
2022-12-14T06:27:58.664Z,17.58
2022-12-14T06:30:25.399Z,18.30
2022-12-14T06:32:52.118Z,17.90
2022-12-14T06:35:18.850Z,17.02
2022-12-14T06:37:45.507Z,18.73
2022-12-14T06:40:15.744Z,20.23
2022-12-14T06:42:42.418Z,19.15
2022-12-14T06:45:09.131Z,19.77
2022-12-14T06:47:39.050Z,19.60
2022-12-14T06:50:05.754Z,20.60
2022-12-14T06:52:32.889Z,19.58
2022-12-14T06:54:59.725Z,21.00
2022-12-14T06:57:27.182Z,20.00
2022-12-14T06:59:53.899Z,22.08
2022-12-14T07:02:21.075Z,21.20
2022-12-14T07:04:48.220Z,21.88
2022-12-14T07:07:15.069Z,22.60
2022-12-14T07:09:41.775Z,21.58
2022-12-14T07:12:08.501Z,23.63
2022-12-14T07:14:35.216Z,22.75
2022-12-14T07:17:01.980Z,23.50
2022-12-14T07:19:28.723Z,22.10
2022-12-14T07:21:55.576Z,21.75
2022-12-14T07:24:22.422Z,22.60
2022-12-14T07:26:49.188Z,22.50
2022-12-14T07:29:16.911Z,22.85
2022-12-14T07:31:43.886Z,22.70
2022-12-14T07:34:16.175Z,23.15
2022-12-14T07:36:43.539Z,23.02
2022-12-14T07:39:10.304Z,22.05
2022-12-14T07:41:37.047Z,22.55
2022-12-14T07:44:03.784Z,22.77
2022-12-14T07:46:30.782Z,23.52
2022-12-14T07:48:57.776Z,24.52
2022-12-14T07:51:24.492Z,24.00
2022-12-14T07:53:51.561Z,22.42
2022-12-14T07:56:18.234Z,22.98
2022-12-14T07:58:44.949Z,22.90
2022-12-14T08:01:12.641Z,23.92
2022-12-14T08:03:39.518Z,24.33
2022-12-14T08:06:06.294Z,23.08
2022-12-14T08:08:33.083Z,21.58
2022-12-14T08:11:00.000Z,24.30
2022-12-14T08:13:27.240Z,22.88
2022-12-14T08:15:56.107Z,23.23
2022-12-14T08:18:23.081Z,23.30
2022-12-14T08:20:53.095Z,22.63
2022-12-14T08:23:20.347Z,22.75
2022-12-14T08:25:47.033Z,23.45
2022-12-14T08:28:13.704Z,22.40
2022-12-14T08:30:40.483Z,22.40
2022-12-14T08:33:07.189Z,21.35
2022-12-14T08:35:34.010Z,21.98
2022-12-14T08:38:00.775Z,21.10
2022-12-14T08:40:27.422Z,21.83
2022-12-14T08:42:54.136Z,21.40
2022-12-14T08:45:20.876Z,22.67
2022-12-14T08:47:47.605Z,21.67
2022-12-14T08:50:14.371Z,22.40
2022-12-14T08:52:41.075Z,21.88
2022-12-14T08:55:07.817Z,22.77
2022-12-14T08:57:34.522Z,20.27
2022-12-14T09:00:02.763Z,21.02
2022-12-14T09:02:30.000Z,21.48
2022-12-14T09:04:56.831Z,20.70
2022-12-14T09:07:23.562Z,21.38
2022-12-14T09:09:50.386Z,20.08
2022-12-14T09:12:17.064Z,20.65
2022-12-14T09:14:46.606Z,20.40
2022-12-14T09:17:16.109Z,21.85
2022-12-14T09:19:42.811Z,20.13
2022-12-14T09:22:09.662Z,19.98
2022-12-14T09:24:36.391Z,19.05
2022-12-14T09:27:03.339Z,18.33
2022-12-14T09:29:30.037Z,18.90
2022-12-14T09:31:56.891Z,19.38
2022-12-14T09:34:24.610Z,17.98
2022-12-14T09:36:52.463Z,18.48
2022-12-14T09:39:19.160Z,18.35
2022-12-14T09:41:45.881Z,17.17
2022-12-14T09:44:18.765Z,19.27
2022-12-14T09:46:45.861Z,16.95
2022-12-14T09:49:12.543Z,16.75
2022-12-14T09:51:39.572Z,17.25
2022-12-14T09:54:06.351Z,17.58
2022-12-14T09:56:33.092Z,16.52
2022-12-14T09:58:59.757Z,16.30
2022-12-14T10:01:26.665Z,17.48
2022-12-14T10:03:53.612Z,17.38
2022-12-14T10:06:21.350Z,16.80
2022-12-14T10:08:54.234Z,16.55
2022-12-14T10:11:21.402Z,16.80
2022-12-14T10:13:48.092Z,15.88
2022-12-14T10:16:14.929Z,17.80
2022-12-14T10:18:58.944Z,16.83
2022-12-14T10:21:28.201Z,16.67
2022-12-14T10:23:54.930Z,16.73
2022-12-14T10:26:21.681Z,16.90
2022-12-14T10:28:48.527Z,16.27
2022-12-14T10:31:15.315Z,17.20
2022-12-14T10:33:42.039Z,15.77
2022-12-14T10:36:08.889Z,16.70
2022-12-14T10:38:35.565Z,16.63
2022-12-14T10:41:02.252Z,16.00
2022-12-14T10:43:29.931Z,16.10
2022-12-14T10:45:56.776Z,16.08
2022-12-14T10:48:23.595Z,15.88
2022-12-14T10:50:50.355Z,15.52
2022-12-14T10:53:17.434Z,16.58
2022-12-14T10:55:44.227Z,15.88
2022-12-14T10:58:10.921Z,15.63
2022-12-14T11:00:37.616Z,16.90
2022-12-14T11:03:04.569Z,16.30
2022-12-14T11:05:36.348Z,15.35
2022-12-14T11:08:03.836Z,15.35
2022-12-14T11:10:30.865Z,15.52
2022-12-14T11:12:57.596Z,15.65
2022-12-14T11:15:24.410Z,15.38
2022-12-14T11:17:51.277Z,15.50
2022-12-14T11:20:18.096Z,14.75
2022-12-14T11:22:44.864Z,14.88
2022-12-14T11:25:11.592Z,15.27
2022-12-14T11:27:38.318Z,15.15
2022-12-14T11:30:04.990Z,16.67
2022-12-14T11:32:31.746Z,14.80
2022-12-14T11:34:58.506Z,15.25
2022-12-14T11:37:25.596Z,15.30
2022-12-14T11:39:52.341Z,15.50
2022-12-14T11:42:19.108Z,14.07
2022-12-14T11:44:46.234Z,14.98
2022-12-14T11:47:12.937Z,14.00
2022-12-14T11:49:39.625Z,14.75
2022-12-14T11:52:06.344Z,14.55
2022-12-14T11:54:33.053Z,14.98
2022-12-14T11:56:59.794Z,15.25
2022-12-14T11:59:26.571Z,14.70
2022-12-14T12:01:53.431Z,14.85
2022-12-14T12:04:20.294Z,15.00
2022-12-14T12:06:46.973Z,15.35
2022-12-14T12:09:13.700Z,15.23
2022-12-14T12:11:40.456Z,14.63
2022-12-14T12:14:07.118Z,15.73
2022-12-14T12:16:35.642Z,13.32
2022-12-14T12:19:07.904Z,14.90
2022-12-14T12:24:04.946Z,13.93
2022-12-14T12:26:31.755Z,14.02
2022-12-14T12:28:58.506Z,14.00
2022-12-14T12:31:25.266Z,13.48
2022-12-14T12:33:51.995Z,14.02
2022-12-14T12:36:23.477Z,15.07
2022-12-14T12:38:50.638Z,14.10
2022-12-14T12:41:17.359Z,14.48
2022-12-14T12:43:44.222Z,14.95
2022-12-14T12:46:17.020Z,14.90
2022-12-14T12:48:43.739Z,14.80
2022-12-14T12:51:10.425Z,15.65
2022-12-14T12:53:37.298Z,14.23
2022-12-14T12:56:04.030Z,13.40
2022-12-14T12:58:31.075Z,15.15
2022-12-14T13:00:57.967Z,14.07
2022-12-14T13:03:24.961Z,14.48
2022-12-14T13:05:51.786Z,13.80
2022-12-14T13:08:18.567Z,14.00
2022-12-14T13:11:17.345Z,14.57
2022-12-14T13:13:32.024Z,15.40
2022-12-14T13:15:58.763Z,13.93
2022-12-14T13:18:49.299Z,15.43
2022-12-14T13:21:12.409Z,14.77
2022-12-14T13:23:46.320Z,15.65
2022-12-14T13:26:23.378Z,14.43
2022-12-14T13:28:59.781Z,14.30
2022-12-14T13:31:26.555Z,14.48
2022-12-14T13:33:53.328Z,14.38
2022-12-14T13:36:20.045Z,15.70
2022-12-14T13:38:46.723Z,15.00
2022-12-14T13:41:13.536Z,14.48
2022-12-14T13:43:40.259Z,15.98
2022-12-14T13:46:07.006Z,15.00
2022-12-14T13:48:33.889Z,15.18
2022-12-14T13:51:02.225Z,16.50
2022-12-14T13:53:29.299Z,15.77
2022-12-14T13:55:56.133Z,16.35
2022-12-14T13:58:22.862Z,16.77
2022-12-14T14:00:49.702Z,16.20
2022-12-14T14:03:16.471Z,17.02
2022-12-14T14:05:43.298Z,15.50
2022-12-14T14:08:11.203Z,16.33
2022-12-14T14:10:38.229Z,17.52
2022-12-14T14:13:04.977Z,17.95
2022-12-14T14:15:31.704Z,17.27
2022-12-14T14:17:58.390Z,18.02
2022-12-14T14:20:25.149Z,17.73
2022-12-14T14:22:52.070Z,18.88
2022-12-14T14:25:19.206Z,18.80
2022-12-14T14:27:45.943Z,18.02
2022-12-14T14:30:17.167Z,18.08
2022-12-14T14:32:43.877Z,18.27
2022-12-14T14:35:10.625Z,18.42
2022-12-14T14:37:37.534Z,19.10
2022-12-14T14:40:16.755Z,18.02
2022-12-14T14:42:47.367Z,17.20
2022-12-14T14:45:14.167Z,18.05
2022-12-14T14:47:41.490Z,19.02
2022-12-14T14:50:08.431Z,19.13
2022-12-14T14:52:36.019Z,17.75
2022-12-14T14:55:43.902Z,17.67
2022-12-14T14:57:49.409Z,15.80
2022-12-14T15:00:16.140Z,17.08
2022-12-14T15:02:42.952Z,17.63
2022-12-14T15:05:40.910Z,19.50
2022-12-14T15:07:56.514Z,16.83
2022-12-14T15:10:23.237Z,17.02
2022-12-14T15:12:49.903Z,15.05
2022-12-14T15:15:16.735Z,15.98
2022-12-14T15:17:43.437Z,16.77
2022-12-14T15:20:10.106Z,16.67
2022-12-14T15:22:36.817Z,15.95
2022-12-14T15:25:03.506Z,15.00
2022-12-14T15:27:30.288Z,14.25
2022-12-14T15:29:57.034Z,14.23
2022-12-14T15:32:23.758Z,13.77
2022-12-14T15:34:50.491Z,13.85
2022-12-14T15:37:17.206Z,12.15
2022-12-14T15:39:44.429Z,13.20
2022-12-14T15:42:11.441Z,13.55
2022-12-14T15:44:40.202Z,14.77
2022-12-14T15:47:07.892Z,14.98
2022-12-14T15:49:37.838Z,15.55
2022-12-14T15:52:05.565Z,15.23
2022-12-14T15:54:32.316Z,14.85
2022-12-14T15:56:59.062Z,15.77
2022-12-14T15:59:25.772Z,17.05
2022-12-14T16:01:56.068Z,14.13
2022-12-14T16:04:25.801Z,16.10
2022-12-14T16:06:52.680Z,15.30
2022-12-14T16:09:21.068Z,15.48
2022-12-14T16:11:47.896Z,13.63
2022-12-14T16:14:14.562Z,15.27
2022-12-14T16:16:41.257Z,15.10
2022-12-14T16:19:25.749Z,16.20
2022-12-14T16:21:53.690Z,15.32
2022-12-14T16:24:20.963Z,14.45
2022-12-14T16:26:47.763Z,14.77
2022-12-14T16:29:14.495Z,15.52
2022-12-14T16:31:41.255Z,14.70
2022-12-14T16:34:08.486Z,14.93
2022-12-14T16:36:35.758Z,15.52
2022-12-14T16:39:02.931Z,15.98
2022-12-14T16:41:29.914Z,15.35
2022-12-14T16:43:57.098Z,17.17
2022-12-14T16:46:23.893Z,17.95
2022-12-14T16:48:50.649Z,17.15
2022-12-14T16:51:18.738Z,18.48
2022-12-14T16:53:51.530Z,17.38
2022-12-14T16:56:18.463Z,17.48
2022-12-14T16:58:45.153Z,16.20
2022-12-14T17:01:12.026Z,17.05
2022-12-14T17:03:39.111Z,16.88
2022-12-14T17:06:05.966Z,16.80
2022-12-14T17:08:32.662Z,16.50
2022-12-14T17:10:59.428Z,17.05
2022-12-14T17:13:26.199Z,19.30
2022-12-14T17:15:52.923Z,19.08
2022-12-14T17:18:20.580Z,17.65
2022-12-14T17:20:47.307Z,18.77
2022-12-14T17:23:14.132Z,17.30
2022-12-14T17:25:46.065Z,18.33
2022-12-14T17:28:14.386Z,18.95
2022-12-14T17:30:41.193Z,19.30
2022-12-14T17:33:07.932Z,19.20
2022-12-14T17:35:34.629Z,19.15
2022-12-14T17:38:01.360Z,18.75
2022-12-14T17:40:28.099Z,18.55
2022-12-14T17:42:54.789Z,18.30
2022-12-14T17:45:21.562Z,18.17
2022-12-14T17:47:48.290Z,17.17
2022-12-14T17:50:15.366Z,17.92
2022-12-14T17:52:42.087Z,18.10
2022-12-14T17:55:08.829Z,17.63
2022-12-14T17:57:35.925Z,17.65
2022-12-14T18:00:21.477Z,18.63
2022-12-14T18:02:48.367Z,15.93
2022-12-14T18:05:15.261Z,16.77
2022-12-14T18:07:42.047Z,16.20
2022-12-14T18:10:08.723Z,18.02
2022-12-14T18:12:35.450Z,15.95
2022-12-14T18:15:02.263Z,17.85
2022-12-14T18:17:28.919Z,17.85
2022-12-14T18:19:55.636Z,17.17
2022-12-14T18:22:22.356Z,16.23
2022-12-14T18:24:49.366Z,18.40
2022-12-14T18:27:16.121Z,19.60
2022-12-14T18:29:42.795Z,18.75
2022-12-14T18:32:09.521Z,17.55
2022-12-14T18:34:36.303Z,18.25
2022-12-14T18:37:03.030Z,18.23
2022-12-14T18:39:29.763Z,18.38
2022-12-14T18:41:56.622Z,17.77
2022-12-14T18:44:23.321Z,16.17
2022-12-14T18:46:50.241Z,15.48
2022-12-14T18:49:16.965Z,16.13
2022-12-14T18:51:43.678Z,14.85
2022-12-14T18:54:10.391Z,15.68
2022-12-14T18:56:37.071Z,14.50
2022-12-14T18:59:03.886Z,15.75
2022-12-14T19:01:30.938Z,14.18
2022-12-14T19:03:57.851Z,13.10
2022-12-14T19:09:12.136Z,13.20
2022-12-14T19:11:39.010Z,12.65
2022-12-14T19:14:05.894Z,12.43
2022-12-14T19:16:32.660Z,11.93
2022-12-14T19:19:00.755Z,11.23
2022-12-14T19:21:29.375Z,11.00
2022-12-14T19:23:56.156Z,10.73
2022-12-14T19:26:23.312Z,11.40
2022-12-14T19:28:50.113Z,12.15
2022-12-14T19:31:16.984Z,11.07
2022-12-14T19:33:43.804Z,9.43
2022-12-14T19:36:10.524Z,8.52
2022-12-14T19:38:37.248Z,10.00
2022-12-14T19:41:03.952Z,7.38
2022-12-14T19:43:31.286Z,7.68
2022-12-14T19:45:58.321Z,7.45
2022-12-14T19:48:25.110Z,8.07
2022-12-14T19:50:51.849Z,7.95
2022-12-14T19:53:23.916Z,8.63
2022-12-14T19:55:52.385Z,7.95
2022-12-14T19:58:19.410Z,7.57
2022-12-14T20:00:46.131Z,7.80
2022-12-14T20:03:13.050Z,8.13
2022-12-14T20:05:39.876Z,8.20
2022-12-14T20:08:06.646Z,8.57
2022-12-14T20:10:33.367Z,8.27
2022-12-14T20:13:00.127Z,7.88
2022-12-14T20:15:26.823Z,8.63
2022-12-14T20:17:54.097Z,8.20
2022-12-14T20:20:21.617Z,8.57
2022-12-14T20:22:49.645Z,8.30
2022-12-14T20:25:16.336Z,9.02
2022-12-14T20:27:43.030Z,9.00
2022-12-14T20:30:09.776Z,9.20
2022-12-14T20:32:36.685Z,9.90
2022-12-14T20:35:03.815Z,10.32
2022-12-14T20:37:30.545Z,10.48
2022-12-14T20:39:57.240Z,9.45
2022-12-14T20:42:24.151Z,8.57
2022-12-14T20:44:50.855Z,8.90
2022-12-14T20:47:17.668Z,9.07
2022-12-14T20:49:44.415Z,8.05
2022-12-14T20:52:11.106Z,7.88
2022-12-14T20:54:37.926Z,8.23
2022-12-14T20:57:04.649Z,8.23
2022-12-14T20:59:31.315Z,7.82
2022-12-14T21:01:58.188Z,7.47
2022-12-14T21:04:24.918Z,7.47
2022-12-14T21:06:51.981Z,7.65
2022-12-14T21:09:18.766Z,6.70
2022-12-14T21:12:04.022Z,6.80
2022-12-14T21:14:30.787Z,6.22
2022-12-14T21:16:57.511Z,6.28
2022-12-14T21:19:24.237Z,6.93
2022-12-14T21:21:53.876Z,7.00
2022-12-14T21:24:37.296Z,7.28
2022-12-14T21:27:07.619Z,7.93
2022-12-14T21:29:34.268Z,6.40
2022-12-14T21:32:01.155Z,6.40
2022-12-14T21:34:28.263Z,6.47
2022-12-14T21:36:54.969Z,6.70
2022-12-14T21:39:21.735Z,6.07
2022-12-14T21:42:06.991Z,6.50
2022-12-14T21:44:36.655Z,6.07
2022-12-14T21:47:03.558Z,5.97
2022-12-14T21:49:30.239Z,6.72
2022-12-14T21:51:57.003Z,6.30
2022-12-14T21:54:23.801Z,6.00
2022-12-14T21:57:09.026Z,6.88
2022-12-14T21:59:35.762Z,6.60
2022-12-14T22:02:02.715Z,6.45
2022-12-14T22:04:30.491Z,6.97
2022-12-14T22:06:59.454Z,7.43
2022-12-14T22:09:26.211Z,6.25
2022-12-14T22:11:52.911Z,6.80
2022-12-14T22:14:19.705Z,7.15
2022-12-14T22:16:46.427Z,7.80
2022-12-14T22:19:13.134Z,8.00
2022-12-14T22:21:39.870Z,6.40
2022-12-14T22:24:06.573Z,6.55
2022-12-14T22:26:33.300Z,5.97
2022-12-14T22:28:59.940Z,5.00
2022-12-14T22:31:26.685Z,5.85
2022-12-14T22:33:55.127Z,6.00
2022-12-14T22:36:21.892Z,5.45
2022-12-14T22:38:48.624Z,6.03
2022-12-14T22:41:15.403Z,6.60
2022-12-14T22:43:42.445Z,5.00
2022-12-14T22:46:09.449Z,5.70
2022-12-14T22:48:36.154Z,5.50
2022-12-14T22:51:02.919Z,5.82
2022-12-14T22:53:39.411Z,5.82
2022-12-14T22:56:06.195Z,5.22
2022-12-14T22:58:32.924Z,5.57
2022-12-14T23:00:59.625Z,5.43
2022-12-14T23:03:26.409Z,5.75
2022-12-14T23:05:56.114Z,5.20
2022-12-14T23:08:25.480Z,5.47
2022-12-14T23:11:10.579Z,5.88
2022-12-14T23:13:56.109Z,6.20
2022-12-14T23:16:41.770Z,5.65
2022-12-14T23:19:27.308Z,7.05
2022-12-14T23:22:12.518Z,6.03
2022-12-14T23:24:57.998Z,6.25
2022-12-14T23:27:43.643Z,6.50
2022-12-14T23:30:28.932Z,6.80
2022-12-14T23:33:14.319Z,6.97
2022-12-14T23:35:59.617Z,6.50
2022-12-14T23:38:45.021Z,7.20
2022-12-14T23:41:30.529Z,7.73
2022-12-14T23:44:15.967Z,7.55
2022-12-14T23:47:01.263Z,7.80
2022-12-14T23:49:46.928Z,7.03
2022-12-14T23:52:32.033Z,8.95
2022-12-14T23:55:17.122Z,7.90
2022-12-14T23:58:02.693Z,7.78
